createdAt,value
2022-10-17T00:02:13.554Z,11.13
2022-10-17T00:04:41.342Z,6.53
2022-10-17T00:07:09.182Z,7.93
2022-10-17T00:09:37.163Z,7.10
2022-10-17T00:12:05.751Z,10.25
2022-10-17T00:14:33.733Z,9.25
2022-10-17T00:17:01.672Z,9.27
2022-10-17T00:19:29.680Z,14.93
2022-10-17T00:21:57.718Z,9.73
2022-10-17T00:24:25.645Z,7.35
2022-10-17T00:26:53.616Z,8.27
2022-10-17T00:29:21.399Z,6.90
2022-10-17T00:31:49.361Z,8.50
2022-10-17T00:34:19.465Z,9.27
2022-10-17T00:36:47.015Z,8.75
2022-10-17T00:39:14.661Z,8.55
2022-10-17T00:41:42.202Z,6.10
2022-10-17T00:44:31.619Z,7.28
2022-10-17T00:47:10.521Z,8.02
2022-10-17T00:49:40.574Z,10.45
2022-10-17T00:52:23.516Z,6.05
2022-10-17T00:55:10.809Z,7.13
2022-10-17T00:57:40.779Z,9.07
2022-10-17T01:00:12.020Z,7.53
2022-10-17T01:02:40.037Z,12.82
2022-10-17T01:05:09.759Z,8.85
2022-10-17T01:07:41.333Z,9.63
2022-10-17T01:10:11.091Z,7.18
2022-10-17T01:13:01.320Z,8.60
2022-10-17T01:16:13.745Z,7.45
2022-10-17T01:19:28.093Z,7.78
2022-10-17T01:22:12.312Z,6.65
2022-10-17T01:25:24.495Z,7.30
2022-10-17T01:28:56.831Z,7.78
2022-10-17T01:31:45.666Z,10.20
2022-10-17T01:34:22.661Z,7.53
2022-10-17T01:37:34.741Z,10.82
2022-10-17T01:40:22.574Z,7.68
2022-10-17T01:43:08.119Z,10.02
2022-10-17T01:46:00.756Z,10.30
2022-10-17T01:48:37.440Z,9.10
2022-10-17T01:51:23.172Z,12.07
2022-10-17T01:54:13.477Z,7.72
2022-10-17T01:56:43.770Z,9.57
2022-10-17T01:59:29.154Z,8.93
2022-10-17T02:01:59.374Z,16.52
2022-10-17T02:04:27.932Z,11.20
2022-10-17T02:06:55.294Z,11.57
2022-10-17T02:09:27.565Z,8.18
2022-10-17T02:12:32.381Z,10.52
2022-10-17T02:15:33.052Z,9.85
2022-10-17T02:18:55.276Z,11.48
2022-10-17T02:21:37.768Z,9.98
2022-10-17T02:24:33.774Z,13.00
2022-10-17T02:27:24.056Z,12.00
2022-10-17T02:30:50.834Z,10.05
2022-10-17T02:33:39.386Z,9.48
2022-10-17T02:36:17.673Z,8.63
2022-10-17T02:38:46.907Z,13.55
2022-10-17T02:41:19.915Z,8.07
2022-10-17T02:43:51.031Z,13.77
2022-10-17T02:46:23.825Z,12.73
2022-10-17T02:49:14.968Z,8.02
2022-10-17T02:52:11.068Z,11.23
2022-10-17T02:54:59.278Z,12.40
2022-10-17T02:58:01.231Z,11.50
2022-10-17T03:00:31.222Z,16.17
2022-10-17T03:02:59.271Z,10.77
2022-10-17T03:05:29.833Z,9.20
2022-10-17T03:07:57.694Z,13.38
2022-10-17T03:10:51.828Z,12.55
2022-10-17T03:13:19.872Z,11.52
2022-10-17T03:15:47.530Z,16.92
2022-10-17T03:18:15.146Z,14.00
2022-10-17T03:20:45.360Z,13.98
2022-10-17T03:23:12.898Z,16.13
2022-10-17T03:25:42.180Z,7.82
2022-10-17T03:28:12.276Z,14.40
2022-10-17T03:30:40.291Z,10.00
2022-10-17T03:33:07.849Z,11.18
2022-10-17T03:35:40.420Z,10.90
2022-10-17T03:38:08.677Z,14.75
2022-10-17T03:40:37.399Z,9.65
2022-10-17T03:43:05.302Z,9.50
2022-10-17T03:45:33.631Z,10.65
2022-10-17T03:48:04.475Z,11.27
2022-10-17T03:50:34.948Z,10.77
2022-10-17T03:53:06.301Z,10.13
2022-10-17T03:55:33.958Z,15.38
2022-10-17T03:58:02.602Z,12.85
2022-10-17T04:00:30.631Z,16.27
2022-10-17T04:02:59.232Z,12.10
2022-10-17T04:05:27.440Z,12.95
2022-10-17T04:07:54.953Z,10.60
2022-10-17T04:10:32.136Z,12.25
2022-10-17T04:12:59.691Z,12.80
2022-10-17T04:15:29.800Z,11.05
2022-10-17T04:17:58.121Z,9.65
2022-10-17T04:20:27.026Z,9.27
2022-10-17T04:22:55.323Z,11.50
2022-10-17T04:25:29.665Z,12.38
2022-10-17T04:27:59.943Z,14.35
2022-10-17T04:30:28.416Z,11.98
2022-10-17T04:32:56.506Z,8.52
2022-10-17T04:35:24.314Z,12.15
2022-10-17T04:38:00.188Z,16.95
2022-10-17T04:40:28.745Z,9.60
2022-10-17T04:42:57.667Z,9.63
2022-10-17T04:45:33.179Z,11.05
2022-10-17T04:48:05.555Z,10.15
2022-10-17T04:50:33.390Z,8.95
2022-10-17T04:53:23.132Z,10.40
2022-10-17T04:55:51.066Z,13.70
2022-10-17T04:58:19.753Z,13.80
2022-10-17T05:00:47.753Z,13.57
2022-10-17T05:03:21.741Z,12.57
2022-10-17T05:05:49.360Z,11.52
2022-10-17T05:08:17.599Z,11.82
2022-10-17T05:10:46.676Z,13.60
2022-10-17T05:13:14.945Z,14.05
2022-10-17T05:15:42.774Z,15.77
2022-10-17T05:18:11.765Z,10.18
2022-10-17T05:20:42.434Z,11.15
2022-10-17T05:23:10.878Z,14.35
2022-10-17T05:25:42.387Z,11.25
2022-10-17T05:28:09.855Z,11.02
2022-10-17T05:30:38.975Z,15.90
2022-10-17T05:33:11.793Z,12.45
2022-10-17T05:35:40.479Z,14.90
2022-10-17T05:38:08.263Z,11.45
2022-10-17T05:40:38.747Z,15.15
2022-10-17T05:43:06.677Z,9.98
2022-10-17T05:45:34.489Z,12.52
2022-10-17T05:48:02.287Z,13.18
2022-10-17T05:50:29.973Z,13.30
2022-10-17T05:53:05.582Z,12.80
2022-10-17T05:55:38.864Z,15.18
2022-10-17T05:58:06.953Z,11.18
2022-10-17T06:00:38.849Z,14.90
2022-10-17T06:03:09.021Z,15.50
2022-10-17T06:05:38.167Z,13.23
2022-10-17T06:08:05.913Z,10.70
2022-10-17T06:10:36.544Z,13.85
2022-10-17T06:13:04.802Z,17.77
2022-10-17T06:15:32.480Z,10.73
2022-10-17T06:18:05.761Z,13.13
2022-10-17T06:20:33.577Z,15.38
2022-10-17T06:23:01.703Z,16.50
2022-10-17T06:25:52.693Z,14.80
2022-10-17T06:28:20.740Z,17.08
2022-10-17T06:48:02.107Z,18.88
2022-10-17T08:25:27.108Z,7.72
2022-10-17T08:27:54.608Z,7.38
2022-10-17T08:30:22.047Z,5.85
2022-10-17T08:32:49.336Z,6.47
2022-10-17T08:35:16.885Z,6.95
2022-10-17T08:37:44.237Z,6.97
2022-10-17T08:40:35.473Z,5.20
2022-10-17T08:43:43.674Z,9.23
2022-10-17T08:46:12.333Z,7.50
2022-10-17T08:48:47.109Z,10.35
2022-10-17T08:51:28.344Z,8.70
2022-10-17T08:54:20.594Z,5.80
2022-10-17T08:56:53.646Z,6.82
2022-10-17T08:59:28.844Z,6.75
2022-10-17T09:02:41.968Z,7.45
2022-10-17T09:05:33.653Z,7.57
2022-10-17T09:08:29.184Z,5.05
2022-10-17T09:11:33.958Z,8.63
2022-10-17T09:14:43.268Z,6.07
2022-10-17T09:17:52.579Z,5.82
2022-10-17T09:20:33.675Z,7.05
2022-10-17T09:23:13.833Z,7.13
2022-10-17T09:25:49.434Z,7.53
2022-10-17T09:28:35.018Z,6.13
2022-10-17T09:31:13.245Z,9.63
2022-10-17T09:33:54.569Z,7.72
2022-10-17T09:36:37.679Z,9.35
2022-10-17T09:39:13.664Z,12.95
2022-10-17T09:41:50.684Z,6.25
2022-10-17T09:44:23.562Z,5.70
2022-10-17T09:47:04.626Z,5.45
2022-10-17T09:49:43.845Z,9.93
2022-10-17T09:52:47.727Z,4.72
2022-10-17T09:55:25.883Z,6.38
2022-10-17T09:57:59.339Z,7.30
2022-10-17T10:00:35.108Z,6.07
2022-10-17T10:03:19.218Z,8.57
2022-10-17T10:06:14.343Z,5.32
2022-10-17T10:09:29.773Z,7.35
2022-10-17T10:12:09.845Z,5.40
2022-10-17T10:14:40.384Z,5.22
2022-10-17T10:17:36.509Z,6.07
2022-10-17T10:20:37.613Z,9.70
2022-10-17T10:23:18.374Z,6.38
2022-10-17T10:26:00.436Z,6.45
2022-10-17T10:28:36.609Z,5.43
2022-10-17T10:31:20.354Z,5.30
2022-10-17T10:33:50.891Z,11.98
2022-10-17T10:36:32.018Z,7.97
2022-10-17T10:39:03.817Z,5.35
2022-10-17T10:41:48.494Z,11.02
2022-10-17T10:44:22.206Z,8.30
2022-10-17T10:47:25.488Z,4.35
2022-10-17T10:50:34.619Z,6.45
2022-10-17T10:53:35.626Z,7.47
2022-10-17T10:56:37.499Z,8.60
2022-10-17T10:59:11.036Z,8.82
2022-10-17T11:02:03.950Z,7.15
2022-10-17T11:05:22.896Z,11.13
2022-10-17T11:08:08.996Z,9.98
2022-10-17T11:11:08.272Z,6.57
2022-10-17T11:14:06.948Z,5.22
2022-10-17T11:17:17.364Z,6.18
2022-10-17T11:20:21.278Z,6.90
2022-10-17T11:23:14.709Z,7.80
2022-10-17T11:26:22.962Z,5.13
2022-10-17T11:29:11.979Z,5.10
2022-10-17T11:32:16.688Z,7.90
2022-10-17T11:35:04.485Z,7.82
2022-10-17T11:37:50.333Z,7.93
2022-10-17T11:40:45.068Z,7.53
2022-10-17T11:43:41.363Z,5.18
2022-10-17T11:46:32.513Z,3.30
2022-10-17T11:49:20.351Z,5.70
2022-10-17T11:52:56.381Z,7.80
2022-10-17T11:55:40.373Z,6.07
2022-10-17T11:59:24.475Z,3.97
2022-10-17T12:02:27.010Z,7.95
2022-10-17T12:06:22.895Z,3.63
2022-10-17T12:09:49.890Z,5.50
2022-10-17T12:12:35.401Z,9.73
2022-10-17T12:15:25.011Z,3.85
2022-10-17T12:18:13.692Z,3.88
2022-10-17T12:21:18.768Z,6.00
2022-10-17T12:24:06.435Z,5.65
2022-10-17T12:26:40.920Z,5.32
2022-10-17T12:29:30.834Z,4.15
2022-10-17T12:32:36.823Z,4.65
2022-10-17T12:35:30.850Z,5.30
2022-10-17T12:38:19.588Z,6.13
2022-10-17T12:40:55.695Z,7.00
2022-10-17T12:43:45.016Z,4.55
2022-10-17T12:46:48.194Z,4.85
2022-10-17T12:49:48.819Z,6.80
2022-10-17T12:52:41.606Z,7.70
2022-10-17T12:55:19.448Z,6.10
2022-10-17T12:58:23.953Z,6.43
2022-10-17T13:01:22.584Z,5.00
2022-10-17T13:03:52.962Z,4.78
2022-10-17T13:06:29.697Z,7.10
2022-10-17T13:09:09.313Z,6.70
2022-10-17T13:11:41.707Z,6.72
2022-10-17T13:14:17.704Z,5.15
2022-10-17T13:17:04.451Z,5.47
2022-10-17T13:19:45.746Z,3.97
2022-10-17T13:22:31.986Z,9.45
2022-10-17T13:25:19.576Z,6.43
2022-10-17T13:27:49.921Z,6.90
2022-10-17T13:30:37.251Z,4.25
2022-10-17T13:33:34.073Z,5.43
2022-10-17T13:36:08.803Z,4.85
2022-10-17T13:38:40.348Z,5.50
2022-10-17T13:44:26.601Z,4.53
2022-10-17T13:46:55.024Z,10.23
2022-10-17T13:49:52.910Z,5.18
2022-10-17T13:52:29.712Z,6.53
2022-10-17T13:55:17.896Z,9.25
2022-10-17T13:57:45.713Z,8.85
2022-10-17T14:00:22.861Z,5.50
2022-10-17T14:02:50.570Z,6.22
2022-10-17T14:05:23.374Z,5.95
2022-10-17T14:08:22.757Z,6.05
2022-10-17T14:10:49.202Z,6.07
2022-10-17T14:13:24.112Z,7.90
2022-10-17T14:15:54.891Z,7.05
2022-10-17T14:18:35.914Z,6.60
2022-10-17T14:24:36.413Z,7.13
2022-10-17T14:27:35.129Z,8.90
2022-10-17T14:30:51.729Z,5.18
2022-10-17T14:33:31.247Z,6.40
2022-10-17T14:36:02.189Z,3.92
2022-10-17T14:38:30.991Z,4.03
2022-10-17T14:44:17.554Z,3.67
2022-10-17T14:46:50.890Z,5.47
2022-10-17T14:49:42.935Z,5.80
2022-10-17T14:52:18.778Z,5.60
2022-10-17T14:54:49.933Z,5.20
2022-10-17T14:57:45.332Z,6.13
2022-10-17T15:00:20.112Z,6.30
2022-10-17T15:02:50.313Z,9.10
2022-10-17T15:05:18.513Z,3.55
2022-10-17T15:07:46.700Z,4.93
2022-10-17T15:10:37.080Z,8.75
2022-10-17T15:13:26.611Z,10.13
2022-10-17T15:15:52.674Z,5.75
2022-10-17T15:18:20.110Z,4.85
2022-10-17T15:20:51.994Z,4.85
2022-10-17T15:23:27.420Z,7.90
2022-10-17T15:25:54.773Z,7.35
2022-10-17T15:28:22.111Z,5.47
2022-10-17T15:30:49.745Z,5.65
2022-10-17T15:33:17.470Z,4.60
2022-10-17T15:35:44.788Z,4.72
2022-10-17T15:38:18.106Z,5.82
2022-10-17T15:40:49.018Z,7.70
2022-10-17T15:43:19.902Z,5.45
2022-10-17T15:45:48.202Z,6.80
2022-10-17T15:48:55.835Z,6.72
2022-10-17T15:51:24.217Z,5.13
2022-10-17T15:53:51.532Z,4.72
2022-10-17T15:56:29.604Z,7.38
2022-10-17T15:58:58.146Z,7.82
2022-10-17T16:01:28.922Z,8.65
2022-10-17T16:03:56.668Z,6.82
2022-10-17T16:06:24.838Z,7.90
2022-10-17T16:08:52.836Z,8.90
2022-10-17T16:11:37.199Z,8.02
2022-10-17T16:14:11.486Z,10.77
2022-10-17T16:16:40.116Z,12.13
2022-10-17T16:19:10.228Z,9.82
2022-10-17T16:21:41.022Z,23.67
2022-10-17T16:24:12.349Z,19.17
2022-10-17T16:26:41.263Z,6.85
2022-10-17T16:29:12.052Z,6.10
2022-10-17T16:31:45.598Z,6.68
2022-10-17T16:34:16.739Z,5.53
2022-10-17T16:36:44.050Z,7.22
2022-10-17T16:39:11.310Z,11.93
2022-10-17T16:41:39.800Z,6.60
2022-10-17T16:44:14.499Z,11.70
2022-10-17T16:46:42.164Z,7.40
2022-10-17T16:49:10.735Z,9.02
2022-10-17T16:52:04.581Z,14.75
2022-10-17T16:54:33.229Z,11.35
2022-10-17T16:57:01.929Z,10.48
2022-10-17T16:59:29.779Z,7.60
2022-10-17T17:01:57.169Z,6.90
2022-10-17T17:04:24.790Z,9.30
2022-10-17T17:06:52.346Z,10.35
2022-10-17T17:09:19.904Z,8.85
2022-10-17T17:11:47.486Z,6.85
2022-10-17T17:14:15.579Z,7.28
2022-10-17T17:16:43.510Z,7.65
2022-10-17T17:19:16.874Z,7.85
2022-10-17T17:21:50.173Z,8.52
2022-10-17T17:24:23.698Z,9.32
2022-10-17T17:26:59.140Z,12.77
2022-10-17T17:29:27.021Z,11.63
2022-10-17T17:31:54.848Z,14.13
2022-10-17T17:34:22.483Z,7.10
2022-10-17T17:36:49.935Z,10.65
2022-10-17T17:39:17.356Z,8.93
2022-10-17T17:41:45.904Z,7.50
2022-10-17T17:44:16.758Z,10.18
2022-10-17T17:46:45.712Z,10.13
2022-10-17T17:49:14.356Z,15.13
2022-10-17T17:51:46.695Z,8.95
2022-10-17T17:54:15.274Z,8.38
2022-10-17T17:56:43.199Z,12.02
2022-10-17T17:59:13.770Z,11.60
2022-10-17T18:01:41.662Z,8.60
2022-10-17T18:04:16.621Z,11.68
2022-10-17T18:06:44.519Z,10.35
2022-10-17T18:09:12.001Z,11.38
2022-10-17T18:11:39.513Z,12.45
2022-10-17T18:14:12.021Z,8.63
2022-10-17T18:16:39.782Z,12.98
2022-10-17T18:19:10.954Z,12.75
2022-10-17T18:21:38.464Z,12.38
2022-10-17T18:24:07.642Z,13.18
2022-10-17T18:26:35.283Z,12.65
2022-10-17T18:29:04.372Z,12.13
2022-10-17T18:31:35.666Z,14.90
2022-10-17T18:34:05.346Z,14.00
2022-10-17T18:36:35.089Z,15.18
2022-10-17T18:39:04.248Z,9.90
2022-10-17T18:41:32.465Z,11.00
2022-10-17T18:44:03.515Z,13.38
2022-10-17T18:46:47.846Z,17.33
2022-10-17T18:49:23.186Z,13.98
2022-10-17T18:51:51.726Z,10.73
2022-10-17T18:54:22.214Z,11.82
2022-10-17T18:56:56.247Z,14.20
2022-10-17T18:59:28.377Z,14.85
2022-10-17T19:01:55.690Z,20.83
2022-10-17T19:04:26.162Z,11.80
2022-10-17T19:06:53.465Z,17.98
2022-10-17T19:09:20.800Z,15.77
2022-10-17T19:11:48.076Z,11.32
2022-10-17T19:14:15.397Z,11.73
2022-10-17T19:16:48.294Z,12.90
2022-10-17T19:19:25.922Z,15.77
2022-10-17T19:21:54.059Z,13.68
2022-10-17T19:24:27.320Z,10.05
2022-10-17T19:27:00.439Z,10.20
2022-10-17T19:29:33.419Z,14.15
2022-10-17T19:32:02.493Z,15.05
2022-10-17T19:34:29.805Z,13.07
2022-10-17T19:36:57.868Z,15.88
2022-10-17T19:39:26.464Z,9.73
2022-10-17T19:41:53.825Z,8.68
2022-10-17T19:44:21.065Z,15.20
2022-10-17T19:46:49.191Z,13.30
2022-10-17T19:49:16.935Z,17.63
2022-10-17T19:51:44.993Z,11.77
2022-10-17T19:54:13.348Z,14.93
2022-10-17T19:56:46.434Z,15.32
2022-10-17T19:59:17.171Z,11.80
2022-10-17T20:01:45.448Z,13.98
2022-10-17T20:04:17.810Z,13.15
2022-10-17T20:06:45.289Z,14.27
2022-10-17T20:09:16.655Z,15.23
2022-10-17T20:11:45.490Z,14.80
2022-10-17T20:14:12.761Z,11.90
2022-10-17T20:16:39.963Z,14.95
2022-10-17T20:19:12.589Z,14.10
2022-10-17T20:21:39.890Z,19.50
2022-10-17T20:24:13.857Z,13.70
2022-10-17T20:26:42.902Z,12.32
2022-10-17T20:29:20.454Z,15.00
2022-10-17T20:31:48.892Z,13.82
2022-10-17T20:34:19.084Z,13.00
2022-10-17T20:36:48.615Z,12.50
2022-10-17T20:39:19.790Z,13.10
2022-10-17T20:41:47.918Z,11.88
2022-10-17T20:44:15.853Z,13.38
2022-10-17T20:47:00.759Z,17.02
2022-10-17T20:49:32.084Z,10.23
2022-10-17T20:52:01.062Z,14.65
2022-10-17T20:54:28.507Z,12.50
2022-10-17T20:56:57.799Z,11.95
2022-10-17T20:59:28.388Z,12.73
2022-10-17T21:01:55.968Z,13.80
2022-10-17T21:07:10.733Z,14.30
2022-10-17T21:09:38.204Z,9.45
2022-10-17T21:12:05.714Z,9.93
2022-10-17T21:14:33.628Z,11.40
2022-10-17T21:17:04.680Z,11.98
2022-10-17T21:19:32.889Z,13.13
2022-10-17T21:22:06.532Z,14.95
2022-10-17T21:24:34.180Z,10.77
2022-10-17T21:27:01.606Z,16.92
2022-10-17T21:29:28.838Z,14.50
2022-10-17T21:31:56.245Z,15.43
2022-10-17T21:34:24.915Z,10.95
2022-10-17T21:36:53.227Z,9.98
2022-10-17T21:39:21.878Z,14.43
2022-10-17T21:41:49.077Z,15.57
2022-10-17T21:44:25.774Z,16.50
2022-10-17T21:46:54.829Z,9.75
2022-10-17T21:49:25.646Z,10.45
2022-10-17T21:51:53.525Z,14.60
2022-10-17T21:54:25.866Z,11.60
2022-10-17T21:56:53.095Z,11.77
2022-10-17T21:59:20.263Z,10.55
2022-10-17T22:01:47.607Z,12.82
2022-10-17T22:04:39.743Z,11.05
2022-10-17T22:07:07.240Z,13.43
2022-10-17T22:09:34.585Z,13.60
2022-10-17T22:12:01.869Z,9.63
2022-10-17T22:14:29.300Z,15.10
2022-10-17T22:16:56.618Z,17.00
2022-10-17T22:19:27.528Z,12.15
2022-10-17T22:21:55.697Z,14.95
2022-10-17T22:24:23.902Z,13.95
2022-10-17T22:26:52.864Z,17.42
2022-10-17T22:29:20.816Z,13.63
2022-10-17T22:31:48.311Z,14.68
2022-10-17T22:34:18.346Z,12.95
2022-10-17T22:36:47.592Z,13.45
2022-10-17T22:39:14.842Z,14.65
2022-10-17T22:41:42.010Z,13.07
2022-10-17T22:44:09.392Z,10.57
2022-10-17T22:46:41.830Z,12.63
2022-10-17T22:49:09.063Z,13.80
2022-10-17T22:51:36.268Z,15.50
2022-10-17T22:54:03.927Z,12.77
2022-10-17T22:56:31.652Z,16.15
2022-10-17T22:58:59.644Z,13.82
2022-10-17T23:01:27.140Z,12.60
2022-10-17T23:03:54.559Z,13.75
2022-10-17T23:06:23.827Z,17.35
2022-10-17T23:08:52.167Z,14.65
2022-10-17T23:11:20.697Z,15.88
2022-10-17T23:13:48.317Z,14.52
2022-10-17T23:16:15.816Z,13.35
2022-10-17T23:18:44.103Z,12.75
2022-10-17T23:21:11.938Z,10.05
2022-10-17T23:23:39.257Z,12.15
2022-10-17T23:26:11.858Z,16.85
2022-10-17T23:28:40.802Z,13.52
2022-10-17T23:31:19.571Z,11.73
2022-10-17T23:33:49.934Z,13.60
2022-10-17T23:36:20.581Z,16.75
2022-10-17T23:38:48.904Z,17.10
2022-10-17T23:41:17.299Z,13.82
2022-10-17T23:43:45.032Z,18.05
2022-10-17T23:46:12.805Z,13.52
2022-10-17T23:48:41.566Z,15.77
2022-10-17T23:51:10.560Z,13.02
2022-10-17T23:53:40.176Z,11.90
2022-10-17T23:56:10.427Z,14.13
2022-10-17T23:58:39.614Z,14.98
